Terminal Aerodrome Forecast
Issued by NWS Mt. Holly, NJ

Home | Current Version | Previous Version | Text Only | Print | Product List | Glossary On
Versions: 1 2 3 4 5 6 7 8 9 10 11 12 13 14 15 16 17 18 19 20 21 22 23 24 25 26 27 28 29
000
FTUS41 KPHI 261400 AAA
TAFILG
TAF AMD
KILG 261429Z 2614/2712 06013G24KT 3SM -SN BR SCT012 OVC025
      TEMPO 2614/2615 1SM -SN BR OVC020
     FM261500 05015G25KT 3SM -SN OVC012
     FM262200 04020G30KT 1SM -SN OVC006
     FM270200 02020G30KT 1/2SM SN OVC004=

USA.gov is the U.S. government's official web portal to all federal, state and local government web resources and services.